createdAt,value
2019-01-26T00:01:06.962Z,-2.48
2019-01-26T00:02:16.911Z,-2.45
2019-01-26T00:03:26.591Z,-2.42
2019-01-26T00:04:36.272Z,-2.48
2019-01-26T00:05:45.979Z,-2.37
2019-01-26T00:06:55.400Z,-2.44
2019-01-26T00:08:05.334Z,-2.34
2019-01-26T00:09:15.027Z,-2.42
2019-01-26T00:10:24.723Z,-2.23
2019-01-26T00:11:34.408Z,-2.32
2019-01-26T00:12:43.842Z,-2.26
2019-01-26T00:13:53.781Z,-2.29
2019-01-26T00:15:03.714Z,-2.36
2019-01-26T00:16:13.403Z,-2.32
2019-01-26T00:17:28.458Z,-2.22
2019-01-26T00:18:38.388Z,-2.37
2019-01-26T00:19:48.324Z,-2.37
2019-01-26T00:20:58.016Z,-2.37
2019-01-26T00:22:07.704Z,-2.42
2019-01-26T00:23:17.630Z,-2.4
2019-01-26T00:24:27.316Z,-2.42
2019-01-26T00:25:36.994Z,-2.44
2019-01-26T00:26:46.921Z,-2.34
2019-01-26T00:27:56.862Z,-2.29
2019-01-26T00:29:06.787Z,-2.29
2019-01-26T00:30:16.720Z,-2.33
2019-01-26T00:31:26.652Z,-2.26
2019-01-26T00:32:36.623Z,-2.29
2019-01-26T00:33:48.224Z,-2.29
2019-01-26T00:34:57.902Z,-2.25
2019-01-26T00:36:07.578Z,-2.29
2019-01-26T00:37:17.567Z,-2.36
2019-01-26T00:38:27.486Z,-2.26
2019-01-26T00:39:37.629Z,-2.25
2019-01-26T00:40:47.563Z,-2.25
2019-01-26T00:41:57.510Z,-2.2
2019-01-26T00:43:07.452Z,-2.22
2019-01-26T00:44:17.395Z,-2.15
2019-01-26T00:45:27.098Z,-2.11
2019-01-26T00:46:37.037Z,-2.14
2019-01-26T00:47:46.715Z,-2.18
2019-01-26T00:48:56.398Z,-2.23
2019-01-26T00:50:06.335Z,-2.17
2019-01-26T00:51:19.698Z,-2.2
2019-01-26T00:52:29.656Z,-2.13
2019-01-26T00:53:39.593Z,-2.17
2019-01-26T00:54:49.529Z,-2.15
2019-01-26T00:55:59.230Z,-2.13
2019-01-26T00:57:08.910Z,-2.1
2019-01-26T00:58:18.614Z,-2.13
2019-01-26T00:59:32.583Z,-2.1
2019-01-26T01:00:42.269Z,-2.05
2019-01-26T01:01:51.960Z,-2.04
2019-01-26T01:03:01.653Z,-2.05
2019-01-26T01:04:11.112Z,-2.04
2019-01-26T01:05:21.047Z,-2
2019-01-26T01:06:30.986Z,-2.05
2019-01-26T01:07:41.029Z,-1.97
2019-01-26T01:08:50.911Z,-1.99
2019-01-26T01:10:01.046Z,-2.1
2019-01-26T01:11:10.980Z,-1.97
2019-01-26T01:12:20.673Z,-1.97
2019-01-26T01:13:30.352Z,-1.97
2019-01-26T01:14:40.038Z,-1.99
2019-01-26T01:15:49.976Z,-1.97
2019-01-26T01:16:59.908Z,-1.99
2019-01-26T01:18:09.590Z,-2.02
2019-01-26T01:19:19.516Z,-1.97
2019-01-26T01:20:29.446Z,-1.94
2019-01-26T01:21:38.886Z,-1.97
2019-01-26T01:22:48.652Z,-2.02
2019-01-26T01:23:58.604Z,-1.96
2019-01-26T01:25:08.531Z,-2.02
2019-01-26T01:26:18.624Z,-1.93
2019-01-26T01:27:29.001Z,-1.93
2019-01-26T01:28:38.938Z,-1.94
2019-01-26T01:29:48.870Z,-1.99
2019-01-26T01:30:58.806Z,-1.96
2019-01-26T01:32:08.753Z,-1.97
2019-01-26T01:33:18.697Z,-1.87
2019-01-26T01:34:28.377Z,-1.93
2019-01-26T01:35:38.065Z,-1.96
2019-01-26T01:36:48.014Z,-1.96
2019-01-26T01:37:57.941Z,-1.96
2019-01-26T01:39:07.871Z,-1.97
2019-01-26T01:40:17.806Z,-1.99
2019-01-26T01:41:27.723Z,-2.02
2019-01-26T01:42:37.659Z,-2.02
2019-01-26T01:43:47.343Z,-1.99
2019-01-26T01:44:57.280Z,-1.97
2019-01-26T01:46:06.951Z,-1.96
2019-01-26T01:47:16.643Z,-1.96
2019-01-26T01:48:26.580Z,-1.99
2019-01-26T01:49:36.535Z,-2.02
2019-01-26T01:50:46.459Z,-1.96
2019-01-26T01:51:56.145Z,-1.97
2019-01-26T01:53:06.075Z,-1.96
2019-01-26T01:54:15.760Z,-1.97
2019-01-26T01:55:25.704Z,-1.96
2019-01-26T01:56:35.648Z,-1.93
2019-01-26T01:57:45.319Z,-2
2019-01-26T01:58:55.256Z,-1.94
2019-01-26T02:00:04.936Z,-1.94
2019-01-26T02:01:15.060Z,-1.96
2019-01-26T02:02:24.734Z,-1.94
2019-01-26T02:03:34.645Z,-2
2019-01-26T02:04:44.627Z,-2
2019-01-26T02:05:54.556Z,-1.99
2019-01-26T02:07:04.486Z,-1.96
2019-01-26T02:08:14.413Z,-2.02
2019-01-26T02:09:24.351Z,-1.97
2019-01-26T02:10:34.028Z,-1.9
2019-01-26T02:11:43.709Z,-1.99
2019-01-26T02:12:53.645Z,-1.89
2019-01-26T02:14:03.311Z,-1.78
2019-01-26T02:15:13.009Z,-1.81
2019-01-26T02:16:22.691Z,-1.86
2019-01-26T02:17:32.641Z,-1.87
2019-01-26T02:18:42.585Z,-1.87
2019-01-26T02:19:52.271Z,-1.82
2019-01-26T02:21:02.195Z,-1.78
2019-01-26T02:22:12.625Z,-1.75
2019-01-26T02:23:22.549Z,-1.76
2019-01-26T02:24:32.606Z,-1.86
2019-01-26T02:25:42.557Z,-1.89
2019-01-26T02:26:52.259Z,-1.87
2019-01-26T02:28:02.193Z,-1.76
2019-01-26T02:29:12.129Z,-1.82
2019-01-26T02:30:22.051Z,-1.79
2019-01-26T02:31:32.492Z,-1.78
2019-01-26T02:32:42.182Z,-1.74
2019-01-26T02:33:51.879Z,-1.72
2019-01-26T02:35:01.585Z,-1.72
2019-01-26T02:36:12.125Z,-1.74
2019-01-26T02:37:22.053Z,-1.72
2019-01-26T02:38:32.016Z,-1.64
2019-01-26T02:39:41.454Z,-1.71
2019-01-26T02:40:52.333Z,-1.74
2019-01-26T02:42:02.384Z,-1.69
2019-01-26T02:43:12.312Z,-1.72
2019-01-26T02:44:21.745Z,-1.76
2019-01-26T02:45:31.692Z,-1.72
2019-01-26T02:46:41.367Z,-1.76
2019-01-26T02:47:51.062Z,-1.69
2019-01-26T02:49:01.015Z,-1.72
2019-01-26T02:50:10.693Z,-1.71
2019-01-26T02:51:20.368Z,-1.76
2019-01-26T02:52:30.305Z,-1.87
2019-01-26T02:53:40.007Z,-1.74
2019-01-26T02:54:49.698Z,-1.81
2019-01-26T02:55:59.551Z,-1.86
2019-01-26T02:57:09.551Z,-1.78
2019-01-26T02:58:19.475Z,-1.76
2019-01-26T02:59:29.403Z,-1.75
2019-01-26T03:00:39.331Z,-1.75
2019-01-26T03:01:49.273Z,-1.71
2019-01-26T03:02:58.966Z,-1.74
2019-01-26T03:04:08.901Z,-1.74
2019-01-26T03:05:18.595Z,-1.74
2019-01-26T03:06:28.573Z,-1.76
2019-01-26T03:07:38.509Z,-1.71
2019-01-26T03:08:48.455Z,-1.69
2019-01-26T03:09:57.894Z,-1.78
2019-01-26T03:11:07.323Z,-1.75
2019-01-26T03:12:17.106Z,-1.72
2019-01-26T03:13:27.033Z,-1.78
2019-01-26T03:14:36.740Z,-1.72
2019-01-26T03:15:46.673Z,-1.76
2019-01-26T03:16:56.355Z,-1.76
2019-01-26T03:18:13.899Z,-1.82
2019-01-26T03:19:23.842Z,-1.76
2019-01-26T03:20:33.781Z,-1.72
2019-01-26T03:21:43.728Z,-1.75
2019-01-26T03:22:53.701Z,-1.74
2019-01-26T03:24:03.648Z,-1.74
2019-01-26T03:25:14.199Z,-1.71
2019-01-26T03:26:23.888Z,-1.72
2019-01-26T03:27:33.819Z,-1.71
2019-01-26T03:28:43.755Z,-1.76
2019-01-26T03:29:54.067Z,-1.66
2019-01-26T03:31:03.777Z,-1.72
2019-01-26T03:32:13.265Z,-1.71
2019-01-26T03:33:23.300Z,-1.72
2019-01-26T03:34:33.457Z,-1.74
2019-01-26T03:35:42.898Z,-1.71
2019-01-26T03:36:52.094Z,-1.68
2019-01-26T03:38:01.792Z,-1.71
2019-01-26T03:39:11.744Z,-1.69
2019-01-26T03:40:21.425Z,-1.71
2019-01-26T03:41:31.609Z,-1.61
2019-01-26T03:42:41.570Z,-1.74
2019-01-26T03:43:51.523Z,-1.68
2019-01-26T03:45:01.230Z,-1.66
2019-01-26T03:46:11.173Z,-1.69
2019-01-26T03:47:21.103Z,-1.74
2019-01-26T03:48:30.778Z,-1.75
2019-01-26T03:49:40.561Z,-1.61
2019-01-26T03:50:50.505Z,-1.63
2019-01-26T03:52:00.461Z,-1.64
2019-01-26T03:53:10.399Z,-1.57
2019-01-26T03:54:20.111Z,-1.61
2019-01-26T03:55:29.804Z,-1.57
2019-01-26T03:56:39.738Z,-1.56
2019-01-26T03:57:49.686Z,-1.56
2019-01-26T03:58:59.626Z,-1.54
2019-01-26T04:00:09.334Z,-1.57
2019-01-26T04:01:19.305Z,-1.56
2019-01-26T04:02:29.008Z,-1.61
2019-01-26T04:03:38.969Z,-1.54
2019-01-26T04:04:48.926Z,-1.53
2019-01-26T04:05:58.874Z,-1.57
2019-01-26T04:07:08.827Z,-1.56
2019-01-26T04:08:18.765Z,-1.51
2019-01-26T04:09:28.705Z,-1.56
2019-01-26T04:10:38.383Z,-1.45
2019-01-26T04:11:48.338Z,-1.54
2019-01-26T04:12:58.062Z,-1.58
2019-01-26T04:14:08.004Z,-1.53
2019-01-26T04:15:17.435Z,-1.54
2019-01-26T04:16:26.877Z,-1.45
2019-01-26T04:17:36.821Z,-1.57
2019-01-26T04:18:46.767Z,-1.5
2019-01-26T04:19:56.716Z,-1.48
2019-01-26T04:21:06.672Z,-1.39
2019-01-26T04:22:16.657Z,-1.42
2019-01-26T04:23:25.860Z,-1.45
2019-01-26T04:24:36.014Z,-1.43
2019-01-26T04:25:45.706Z,-1.39
2019-01-26T04:26:55.868Z,-1.42
2019-01-26T04:28:05.310Z,-1.35
2019-01-26T04:29:16.301Z,-1.35
2019-01-26T04:30:25.750Z,-1.33
2019-01-26T04:31:35.928Z,-1.4
2019-01-26T04:32:45.369Z,-1.39
2019-01-26T04:33:55.085Z,-1.35
2019-01-26T04:35:05.040Z,-1.33
2019-01-26T04:36:14.736Z,-1.29
2019-01-26T04:37:24.704Z,-1.38
2019-01-26T04:38:34.154Z,-1.29
2019-01-26T04:39:44.094Z,-1.29
2019-01-26T04:40:53.808Z,-1.24
2019-01-26T04:42:03.767Z,-1.3
2019-01-26T04:43:13.721Z,-1.29
2019-01-26T04:44:23.428Z,-1.21
2019-01-26T04:45:33.120Z,-1.27
2019-01-26T04:46:43.064Z,-1.17
2019-01-26T04:47:52.968Z,-1.27
2019-01-26T04:49:02.976Z,-1.19
2019-01-26T04:50:12.962Z,-1.18
2019-01-26T04:51:22.657Z,-1.15
2019-01-26T04:52:32.586Z,-1.12
2019-01-26T04:53:42.538Z,-1.04
2019-01-26T04:54:53.099Z,-1.06
2019-01-26T04:56:03.101Z,-1.04
2019-01-26T04:57:13.054Z,-1.09
2019-01-26T04:58:22.997Z,-1.03
2019-01-26T04:59:32.950Z,-1.11
2019-01-26T05:00:42.901Z,-1.09
2019-01-26T05:01:52.592Z,-1.09
2019-01-26T05:03:02.541Z,-1.06
2019-01-26T05:04:12.244Z,-1.09
2019-01-26T05:05:21.695Z,-1.04
2019-01-26T05:06:31.649Z,-1.07
2019-01-26T05:07:41.591Z,-1
2019-01-26T05:08:51.056Z,-0.99
2019-01-26T05:10:00.986Z,-0.99
2019-01-26T05:11:10.426Z,-1.03
2019-01-26T05:12:20.381Z,-0.94
2019-01-26T05:13:30.332Z,-0.91
2019-01-26T05:14:40.278Z,-0.94
2019-01-26T05:15:50.242Z,-0.89
2019-01-26T05:16:59.924Z,-0.87
2019-01-26T05:18:09.986Z,-0.89
2019-01-26T05:19:19.678Z,-0.74
2019-01-26T05:20:29.368Z,-0.77
2019-01-26T05:21:39.305Z,-0.78
2019-01-26T05:22:49.008Z,-0.8
2019-01-26T05:23:58.965Z,-0.69
2019-01-26T05:25:08.649Z,-0.66
2019-01-26T05:26:18.335Z,-0.69
2019-01-26T05:27:28.287Z,-0.6
2019-01-26T05:28:38.224Z,-0.62
2019-01-26T05:29:48.177Z,-0.56
2019-01-26T05:30:57.892Z,-0.64
2019-01-26T05:32:07.835Z,-0.64
2019-01-26T05:33:17.291Z,-0.66
2019-01-26T05:34:26.992Z,-0.56
2019-01-26T05:35:36.921Z,-0.6
2019-01-26T05:36:46.606Z,-0.6
2019-01-26T05:37:56.567Z,-0.62
2019-01-26T05:39:06.554Z,-0.56
2019-01-26T05:40:16.243Z,-0.48
2019-01-26T05:41:26.200Z,-0.48
2019-01-26T05:42:36.149Z,-0.48
2019-01-26T05:43:46.092Z,-0.45
2019-01-26T05:44:56.037Z,-0.48
2019-01-26T05:46:05.969Z,-0.48
2019-01-26T05:47:15.930Z,-0.57
2019-01-26T05:48:25.866Z,-0.45
2019-01-26T05:49:35.826Z,-0.48
2019-01-26T05:50:45.768Z,-0.49
2019-01-26T05:51:55.468Z,-0.49
2019-01-26T05:53:04.905Z,-0.45
2019-01-26T05:54:14.585Z,-0.38
2019-01-26T05:55:24.517Z,-0.45
2019-01-26T05:56:34.470Z,-0.41
2019-01-26T05:57:44.401Z,-0.44
2019-01-26T05:58:54.337Z,-0.39
2019-01-26T06:00:05.533Z,-0.38
2019-01-26T06:01:15.521Z,-0.36
2019-01-26T06:02:25.203Z,-0.39
2019-01-26T06:03:34.636Z,-0.35
2019-01-26T06:04:44.555Z,-0.38
2019-01-26T06:05:54.241Z,-0.39
2019-01-26T06:07:04.182Z,-0.36
2019-01-26T06:08:13.868Z,-0.38
2019-01-26T06:09:23.808Z,-0.35
2019-01-26T06:10:33.740Z,-0.31
2019-01-26T06:11:43.894Z,-0.21
2019-01-26T06:12:53.093Z,-0.28
2019-01-26T06:14:04.248Z,-0.23
2019-01-26T06:15:14.198Z,-0.3
2019-01-26T06:16:24.127Z,-0.28
2019-01-26T06:17:34.068Z,-0.2
2019-01-26T06:18:43.749Z,-0.13
2019-01-26T06:19:53.682Z,-0.13
2019-01-26T06:21:03.616Z,-0.18
2019-01-26T06:22:13.303Z,-0.15
2019-01-26T06:23:23.246Z,-0.17
2019-01-26T06:24:33.203Z,-0.13
2019-01-26T06:25:43.154Z,-0.15
2019-01-26T06:26:53.142Z,-0.12
2019-01-26T06:28:03.131Z,-0.03
2019-01-26T06:29:12.830Z,-0.09
2019-01-26T06:30:22.509Z,-0.07
2019-01-26T06:31:31.952Z,0
2019-01-26T06:32:41.881Z,-0.05
2019-01-26T06:33:51.827Z,-0.03
2019-01-26T06:35:01.794Z,0.01
2019-01-26T06:36:11.012Z,0.12
2019-01-26T06:37:20.957Z,0.05
2019-01-26T06:38:30.638Z,-0.03
2019-01-26T06:39:40.615Z,0.01
2019-01-26T06:40:50.569Z,0.11
2019-01-26T06:42:00.257Z,0.15
2019-01-26T06:43:09.949Z,0.08
2019-01-26T06:44:19.387Z,0.13
2019-01-26T06:45:29.071Z,0.13
2019-01-26T06:46:39.574Z,0.16
2019-01-26T06:47:49.509Z,0.18
2019-01-26T06:48:59.654Z,0.26
2019-01-26T06:50:09.338Z,0.19
2019-01-26T06:51:19.282Z,0.2
2019-01-26T06:52:28.987Z,0.16
2019-01-26T06:53:38.925Z,0.16
2019-01-26T06:54:49.029Z,0.18
2019-01-26T06:55:58.956Z,0.2
2019-01-26T06:57:08.933Z,0.33
2019-01-26T06:58:18.612Z,0.31
2019-01-26T06:59:28.571Z,0.36
2019-01-26T07:00:38.533Z,0.37
2019-01-26T07:01:48.227Z,0.33
2019-01-26T07:02:58.157Z,0.34
2019-01-26T07:04:08.299Z,0.37
2019-01-26T07:05:18.229Z,0.44
2019-01-26T07:06:28.151Z,0.37
2019-01-26T07:07:38.091Z,0.42
2019-01-26T07:08:48.034Z,0.37
2019-01-26T07:09:57.717Z,0.4
2019-01-26T07:11:07.819Z,0.45
2019-01-26T07:12:17.263Z,0.49
2019-01-26T07:13:26.703Z,0.55
2019-01-26T07:14:36.383Z,0.49
2019-01-26T07:15:46.319Z,0.49
2019-01-26T07:16:56.292Z,0.59
2019-01-26T07:18:12.003Z,0.51
2019-01-26T07:19:21.693Z,0.52
2019-01-26T07:20:31.625Z,0.61
2019-01-26T07:21:41.294Z,0.55
2019-01-26T07:22:50.475Z,0.64
2019-01-26T07:24:00.157Z,0.56
2019-01-26T07:25:11.005Z,0.59
2019-01-26T07:26:20.714Z,0.58
2019-01-26T07:27:30.145Z,0.7
2019-01-26T07:28:40.081Z,0.71
2019-01-26T07:29:50.412Z,0.76
2019-01-26T07:31:00.909Z,0.77
2019-01-26T07:32:11.854Z,0.67
2019-01-26T07:33:21.530Z,0.7
2019-01-26T07:34:31.223Z,0.67
2019-01-26T07:35:41.163Z,0.81
2019-01-26T07:36:51.113Z,0.85
2019-01-26T07:38:01.055Z,0.84
2019-01-26T07:39:10.496Z,0.85
2019-01-26T07:40:20.445Z,0.82
2019-01-26T07:41:30.125Z,0.86
2019-01-26T07:42:40.071Z,0.89
2019-01-26T07:43:49.756Z,0.95
2019-01-26T07:44:59.695Z,0.89
2019-01-26T07:46:09.127Z,1
2019-01-26T07:47:18.317Z,0.91
2019-01-26T07:48:28.283Z,0.94
2019-01-26T07:49:37.969Z,0.99
2019-01-26T07:50:47.895Z,0.95
2019-01-26T07:51:57.851Z,0.94
2019-01-26T07:53:07.566Z,1.09
2019-01-26T07:54:17.251Z,1.06
2019-01-26T07:55:27.439Z,0.96
2019-01-26T07:56:36.873Z,1.06
2019-01-26T07:57:46.308Z,1.06
2019-01-26T07:58:56.258Z,1.12
2019-01-26T08:00:05.952Z,1.07
2019-01-26T08:01:15.889Z,1.1
2019-01-26T08:02:25.822Z,1.1
2019-01-26T08:03:35.768Z,1.12
2019-01-26T08:04:45.456Z,1.09
2019-01-26T08:05:55.142Z,1.09
2019-01-26T08:07:05.073Z,1.2
2019-01-26T08:08:15.001Z,1.2
2019-01-26T08:09:24.676Z,1.14
2019-01-26T08:10:34.373Z,1.2
2019-01-26T08:11:44.948Z,1.14
2019-01-26T08:12:54.632Z,1.21
2019-01-26T08:14:04.297Z,1.14
2019-01-26T08:15:14.241Z,1.18
2019-01-26T08:16:23.928Z,1.2
2019-01-26T08:17:33.638Z,1.31
2019-01-26T08:18:43.578Z,1.28
2019-01-26T08:19:53.295Z,1.24
2019-01-26T08:21:03.241Z,1.27
2019-01-26T08:22:13.188Z,1.3
2019-01-26T08:23:23.160Z,1.28
2019-01-26T08:24:32.608Z,1.25
2019-01-26T08:25:42.298Z,1.27
2019-01-26T08:26:52.255Z,1.39
2019-01-26T08:28:02.200Z,1.38
2019-01-26T08:29:11.883Z,1.32
2019-01-26T08:30:21.588Z,1.36
2019-01-26T08:31:31.522Z,1.4
2019-01-26T08:32:41.212Z,1.42
2019-01-26T08:33:50.909Z,1.31
2019-01-26T08:35:00.850Z,1.36
2019-01-26T08:36:10.529Z,1.43
2019-01-26T08:37:20.478Z,1.39
2019-01-26T08:38:31.315Z,1.45
2019-01-26T08:39:41.250Z,1.27
2019-01-26T08:40:50.932Z,1.46
2019-01-26T08:42:00.629Z,1.32
2019-01-26T08:43:10.084Z,1.5
2019-01-26T08:44:19.778Z,1.34
2019-01-26T08:45:29.710Z,1.52
2019-01-26T08:46:39.655Z,1.48
2019-01-26T08:47:49.627Z,1.45
2019-01-26T08:48:59.570Z,1.42
2019-01-26T08:50:09.518Z,1.45
2019-01-26T08:51:19.448Z,1.48
2019-01-26T08:52:29.154Z,1.45
2019-01-26T08:53:39.308Z,1.5
2019-01-26T08:54:48.984Z,1.48
2019-01-26T08:55:58.687Z,1.5
2019-01-26T08:57:08.364Z,1.5
2019-01-26T08:58:18.309Z,1.49
2019-01-26T08:59:28.005Z,1.56
2019-01-26T09:00:37.694Z,1.48
2019-01-26T09:01:47.645Z,1.48
2019-01-26T09:02:57.334Z,1.49
2019-01-26T09:04:07.270Z,1.49
2019-01-26T09:05:17.211Z,1.49
2019-01-26T09:06:27.376Z,1.57
2019-01-26T09:07:37.053Z,1.56
2019-01-26T09:08:46.508Z,1.52
2019-01-26T09:09:56.456Z,1.49
2019-01-26T09:11:06.136Z,1.52
2019-01-26T09:12:16.072Z,1.57
2019-01-26T09:13:25.755Z,1.6
2019-01-26T09:14:35.441Z,1.56
2019-01-26T09:15:45.138Z,1.64
2019-01-26T09:16:54.832Z,1.56
2019-01-26T09:18:04.544Z,1.61
2019-01-26T09:19:14.240Z,1.64
2019-01-26T09:20:25.359Z,1.64
2019-01-26T09:21:35.042Z,1.6
2019-01-26T09:22:44.728Z,1.6
2019-01-26T09:23:54.680Z,1.64
2019-01-26T09:25:04.376Z,1.64
2019-01-26T09:26:14.303Z,1.61
2019-01-26T09:27:24.418Z,1.64
2019-01-26T09:28:34.354Z,1.64
2019-01-26T09:29:45.084Z,1.68
2019-01-26T09:30:54.756Z,1.75
2019-01-26T09:32:04.689Z,1.66
2019-01-26T09:33:14.634Z,1.68
2019-01-26T09:34:24.080Z,1.67
2019-01-26T09:35:33.767Z,1.75
2019-01-26T09:36:43.442Z,1.75
2019-01-26T09:37:53.129Z,1.81
2019-01-26T09:39:03.071Z,1.75
2019-01-26T09:40:12.997Z,1.78
2019-01-26T09:41:22.430Z,1.79
2019-01-26T09:42:32.376Z,1.76
2019-01-26T09:43:42.532Z,1.75
2019-01-26T09:44:52.214Z,1.82
2019-01-26T09:46:02.135Z,1.85
2019-01-26T09:47:11.828Z,1.85
2019-01-26T09:48:21.517Z,1.81
2019-01-26T09:49:31.504Z,1.79
2019-01-26T09:50:41.187Z,1.79
2019-01-26T09:51:51.136Z,1.79
2019-01-26T09:53:01.077Z,1.78
2019-01-26T09:54:11.022Z,1.78
2019-01-26T09:55:20.714Z,1.79
2019-01-26T09:56:30.642Z,1.82
2019-01-26T09:57:40.581Z,1.76
2019-01-26T09:58:50.272Z,1.85
2019-01-26T10:00:00.207Z,1.89
2019-01-26T10:01:10.169Z,1.89
2019-01-26T10:02:19.854Z,1.88
2019-01-26T10:03:29.802Z,1.88
2019-01-26T10:04:39.483Z,1.89
2019-01-26T10:05:49.424Z,1.93
2019-01-26T10:06:59.364Z,1.95
2019-01-26T10:08:09.289Z,1.92
2019-01-26T10:09:19.234Z,1.98
2019-01-26T10:10:28.673Z,1.95
2019-01-26T10:11:38.653Z,1.88
2019-01-26T10:12:48.346Z,1.97
2019-01-26T10:13:58.052Z,1.97
2019-01-26T10:15:07.765Z,2.03
2019-01-26T10:16:17.723Z,1.97
2019-01-26T10:17:27.267Z,2.03
2019-01-26T10:18:37.194Z,2.01
2019-01-26T10:19:46.884Z,2.04
2019-01-26T10:20:56.826Z,2.01
2019-01-26T10:22:06.491Z,2.03
2019-01-26T10:23:16.442Z,1.89
2019-01-26T10:24:26.391Z,2.01
2019-01-26T10:25:36.067Z,2.14
2019-01-26T10:26:46.006Z,2.01
2019-01-26T10:27:55.979Z,2.05
2019-01-26T10:29:05.933Z,2.03
2019-01-26T10:30:15.613Z,2.03
2019-01-26T10:31:25.568Z,2.03
2019-01-26T10:32:35.243Z,2.07
2019-01-26T10:33:45.178Z,2.05
2019-01-26T10:34:55.110Z,2.01
2019-01-26T10:36:05.054Z,2.05
2019-01-26T10:37:15.006Z,2.07
2019-01-26T10:38:24.955Z,2.12
2019-01-26T10:39:34.903Z,2.16
2019-01-26T10:40:44.858Z,2.15
2019-01-26T10:41:54.809Z,2.18
2019-01-26T10:43:04.746Z,2.12
2019-01-26T10:44:14.686Z,2.21
2019-01-26T10:45:23.870Z,2.3
2019-01-26T10:46:33.803Z,2.22
2019-01-26T10:47:43.746Z,2.3
2019-01-26T10:49:00.387Z,2.25
2019-01-26T10:50:10.533Z,2.23
2019-01-26T10:51:20.456Z,2.23
2019-01-26T10:52:30.378Z,2.28
2019-01-26T10:53:40.066Z,2.28
2019-01-26T10:54:49.534Z,2.26
2019-01-26T10:55:59.476Z,2.26
2019-01-26T10:57:09.414Z,2.28
2019-01-26T10:58:19.340Z,2.39
2019-01-26T10:59:29.042Z,2.33
2019-01-26T11:00:39.037Z,2.36
2019-01-26T11:01:48.711Z,2.4
2019-01-26T11:02:58.643Z,2.44
2019-01-26T11:04:08.333Z,2.41
2019-01-26T11:05:17.763Z,2.43
2019-01-26T11:06:27.691Z,2.47
2019-01-26T11:07:37.388Z,2.51
2019-01-26T11:08:47.326Z,2.43
2019-01-26T11:09:56.774Z,2.47
2019-01-26T11:11:06.711Z,2.5
2019-01-26T11:12:16.394Z,2.5
2019-01-26T11:13:26.357Z,2.52
2019-01-26T11:14:36.303Z,2.46
2019-01-26T11:15:46.258Z,2.52
2019-01-26T11:16:56.190Z,2.59
2019-01-26T11:18:05.871Z,2.61
2019-01-26T11:19:15.582Z,2.57
2019-01-26T11:20:25.517Z,2.47
2019-01-26T11:21:35.225Z,2.59
2019-01-26T11:22:45.153Z,2.47
2019-01-26T11:23:55.103Z,2.61
2019-01-26T11:25:05.072Z,2.57
2019-01-26T11:26:15.070Z,2.7
2019-01-26T11:27:25.015Z,2.62
2019-01-26T11:28:34.958Z,2.65
2019-01-26T11:29:44.895Z,2.69
2019-01-26T11:30:54.828Z,2.77
2019-01-26T11:32:04.833Z,2.79
2019-01-26T11:33:14.530Z,2.76
2019-01-26T11:34:24.487Z,2.75
2019-01-26T11:35:34.454Z,2.75
2019-01-26T11:36:44.390Z,2.75
2019-01-26T11:37:54.328Z,2.79
2019-01-26T11:39:04.283Z,2.76
2019-01-26T11:40:13.971Z,2.88
2019-01-26T11:41:23.669Z,2.9
2019-01-26T11:42:33.361Z,2.88
2019-01-26T11:43:43.311Z,2.83
2019-01-26T11:44:53.239Z,2.88
2019-01-26T11:46:02.985Z,2.83
2019-01-26T11:47:12.683Z,2.79
2019-01-26T11:48:22.367Z,2.85
2019-01-26T11:49:32.033Z,2.82
2019-01-26T11:50:41.977Z,2.83
2019-01-26T11:51:51.912Z,2.87
2019-01-26T11:53:01.595Z,2.85
2019-01-26T11:54:11.288Z,3
2019-01-26T11:55:21.219Z,2.93
2019-01-26T11:56:31.943Z,2.98
2019-01-26T11:57:41.625Z,2.94
2019-01-26T11:58:51.561Z,2.95
2019-01-26T12:00:01.493Z,2.94
2019-01-26T12:01:11.187Z,2.97
2019-01-26T12:02:21.127Z,2.95
2019-01-26T12:03:37.372Z,2.94
2019-01-26T12:04:47.061Z,2.98
2019-01-26T12:05:57.022Z,2.98
2019-01-26T12:07:06.463Z,2.97
2019-01-26T12:08:16.425Z,2.97
2019-01-26T12:09:26.110Z,3
2019-01-26T12:10:35.799Z,2.94
2019-01-26T12:11:45.752Z,3.06
2019-01-26T12:12:55.427Z,2.95
2019-01-26T12:14:05.128Z,2.95
2019-01-26T12:15:15.066Z,2.97
2019-01-26T12:16:31.422Z,3
2019-01-26T12:17:41.424Z,2.97
2019-01-26T12:18:51.131Z,3.05
2019-01-26T12:20:01.084Z,3
2019-01-26T12:21:10.789Z,3.05
2019-01-26T12:22:20.754Z,3.08
2019-01-26T12:23:30.443Z,3
2019-01-26T12:24:40.139Z,3.08
2019-01-26T12:25:49.875Z,2.95
2019-01-26T12:26:59.806Z,2.95
2019-01-26T12:28:09.754Z,3.03
2019-01-26T12:29:19.703Z,2.9
2019-01-26T12:30:31.180Z,2.95
2019-01-26T12:31:41.125Z,3.03
2019-01-26T12:32:51.073Z,3.08
2019-01-26T12:34:00.774Z,3
2019-01-26T12:35:10.739Z,2.9
2019-01-26T12:36:20.701Z,2.93
2019-01-26T12:37:30.638Z,3.01
2019-01-26T12:38:40.566Z,2.94
2019-01-26T12:39:50.512Z,2.95
2019-01-26T12:41:00.459Z,2.91
2019-01-26T12:42:10.413Z,2.97
2019-01-26T12:43:20.345Z,2.97
2019-01-26T12:44:30.050Z,3
2019-01-26T12:45:40.002Z,2.97
2019-01-26T12:46:49.701Z,2.9
2019-01-26T12:47:59.648Z,2.91
2019-01-26T12:49:09.337Z,2.9
2019-01-26T12:50:19.037Z,2.83
2019-01-26T12:51:28.742Z,2.82
2019-01-26T12:52:38.440Z,2.87
2019-01-26T12:53:48.384Z,2.83
2019-01-26T12:54:58.337Z,2.85
2019-01-26T12:56:08.294Z,2.83
2019-01-26T12:57:18.235Z,2.77
2019-01-26T12:58:28.177Z,2.79
2019-01-26T12:59:38.125Z,2.76
2019-01-26T13:00:47.568Z,2.76
2019-01-26T13:01:57.010Z,2.8
2019-01-26T13:03:06.956Z,2.76
2019-01-26T13:04:16.904Z,2.82
2019-01-26T13:05:26.362Z,2.79
2019-01-26T13:06:36.310Z,2.75
2019-01-26T13:07:45.751Z,2.72
2019-01-26T13:08:55.434Z,2.72
2019-01-26T13:10:05.122Z,2.7
2019-01-26T13:11:15.063Z,2.76
2019-01-26T13:12:25.017Z,2.75
2019-01-26T13:13:34.969Z,2.75
2019-01-26T13:14:44.394Z,2.75
2019-01-26T13:15:54.331Z,2.79
2019-01-26T13:17:04.017Z,2.73
2019-01-26T13:18:13.968Z,2.79
2019-01-26T13:19:23.913Z,2.77
2019-01-26T13:20:33.855Z,2.77
2019-01-26T13:21:43.806Z,2.75
2019-01-26T13:22:53.491Z,2.68
2019-01-26T13:24:03.430Z,2.65
2019-01-26T13:25:13.386Z,2.64
2019-01-26T13:26:23.067Z,2.7
2019-01-26T13:27:33.032Z,2.68
2019-01-26T13:28:42.757Z,2.72
2019-01-26T13:29:52.694Z,2.7
2019-01-26T13:31:02.654Z,2.68
2019-01-26T13:32:12.614Z,2.69
2019-01-26T13:33:22.579Z,2.7
2019-01-26T13:34:32.608Z,2.62
2019-01-26T13:35:42.643Z,2.7
2019-01-26T13:36:52.340Z,2.7
2019-01-26T13:38:02.034Z,2.55
2019-01-26T13:39:11.712Z,2.58
2019-01-26T13:40:21.626Z,2.58
2019-01-26T13:41:31.579Z,2.64
2019-01-26T13:42:41.525Z,2.64
2019-01-26T13:43:51.477Z,2.57
2019-01-26T13:45:01.172Z,2.65
2019-01-26T13:46:10.891Z,2.7
2019-01-26T13:47:20.589Z,2.64
2019-01-26T13:48:30.279Z,2.64
2019-01-26T13:49:46.464Z,2.64
2019-01-26T13:50:56.407Z,2.58
2019-01-26T13:52:06.350Z,2.58
2019-01-26T13:53:16.280Z,2.59
2019-01-26T13:54:25.984Z,2.58
2019-01-26T13:55:35.911Z,2.61
2019-01-26T13:56:45.905Z,2.57
2019-01-26T13:57:55.855Z,2.59
2019-01-26T13:59:05.297Z,2.59
2019-01-26T14:00:14.994Z,2.62
2019-01-26T14:01:24.697Z,2.59
2019-01-26T14:02:34.404Z,2.59
2019-01-26T14:03:44.097Z,2.61
2019-01-26T14:04:53.779Z,2.57
2019-01-26T14:06:03.762Z,2.55
2019-01-26T14:07:13.716Z,2.59
2019-01-26T14:08:23.676Z,2.65
2019-01-26T14:09:33.611Z,2.57
2019-01-26T14:10:43.570Z,2.55
2019-01-26T14:11:53.518Z,2.62
2019-01-26T14:13:03.465Z,2.58
2019-01-26T14:14:13.167Z,2.61
2019-01-26T14:15:22.858Z,2.58
2019-01-26T14:16:32.791Z,2.58
2019-01-26T14:17:42.730Z,2.58
2019-01-26T14:18:52.407Z,2.58
2019-01-26T14:20:02.357Z,2.62
2019-01-26T14:21:12.302Z,2.62
2019-01-26T14:22:21.739Z,2.73
2019-01-26T14:23:31.456Z,2.58
2019-01-26T14:24:41.404Z,2.7
2019-01-26T14:25:51.338Z,2.73
2019-01-26T14:27:01.280Z,2.7
2019-01-26T14:28:10.965Z,2.57
2019-01-26T14:29:20.920Z,2.62
2019-01-26T14:30:30.871Z,2.7
2019-01-26T14:31:40.817Z,2.69
2019-01-26T14:32:57.243Z,2.72
2019-01-26T14:34:06.441Z,2.65
2019-01-26T14:35:16.384Z,2.76
2019-01-26T14:36:26.341Z,2.76
2019-01-26T14:37:36.295Z,2.82
2019-01-26T14:38:46.255Z,2.83
2019-01-26T14:39:55.939Z,2.75
2019-01-26T14:41:05.888Z,2.76
2019-01-26T14:42:15.833Z,2.73
2019-01-26T14:43:25.781Z,2.77
2019-01-26T14:44:35.710Z,2.72
2019-01-26T14:45:45.417Z,2.7
2019-01-26T14:46:55.363Z,2.76
2019-01-26T14:48:05.066Z,2.77
2019-01-26T14:49:14.784Z,2.76
2019-01-26T14:50:24.220Z,2.79
2019-01-26T14:51:33.901Z,2.7
2019-01-26T14:52:43.578Z,2.69
2019-01-26T14:53:53.797Z,2.69
2019-01-26T14:55:03.485Z,2.64
2019-01-26T14:56:13.432Z,2.55
2019-01-26T14:57:23.146Z,2.61
2019-01-26T14:58:33.102Z,2.61
2019-01-26T14:59:42.528Z,2.59
2019-01-26T15:00:52.454Z,2.55
2019-01-26T15:02:02.145Z,2.59
2019-01-26T15:03:12.091Z,2.59
2019-01-26T15:04:22.051Z,2.59
2019-01-26T15:05:31.726Z,2.51
2019-01-26T15:06:41.666Z,2.5
2019-01-26T15:07:51.359Z,2.47
2019-01-26T15:09:01.040Z,2.46
2019-01-26T15:10:10.987Z,2.43
2019-01-26T15:11:20.942Z,2.39
2019-01-26T15:12:31.125Z,2.44
2019-01-26T15:13:41.071Z,2.41
2019-01-26T15:14:50.780Z,2.39
2019-01-26T15:16:00.464Z,2.37
2019-01-26T15:17:09.909Z,2.37
2019-01-26T15:18:19.609Z,2.39
2019-01-26T15:19:29.541Z,2.43
2019-01-26T15:20:39.265Z,2.41
2019-01-26T15:21:49.213Z,2.47